Time;durP1;ratioP1;P1;durP2;ratioP2;P2;SDS_P1;SDS_P2;PMS_P1;PMS_P2;Temp;Humidity;BMP_temperature;BMP_pressure;BME280_temperature;BME280_humidity;BME280_pressure;Samples;Min_cycle;Max_cycle;Signal;HPM_P1;HPM_P2
2023/01/18 00:01:21;;;;;;;0.00;0.00;;;;;;;-4.38;100.00;98204.22;6179436;23;20036;-77
2023/01/18 00:03:46;;;;;;;0.10;0.10;;;;;;;-4.35;100.00;98210.16;6201229;23;20004;-76
2023/01/18 00:06:12;;;;;;;0.10;0.10;;;;;;;-4.28;100.00;98208.22;6214663;23;20012;-76
2023/01/18 00:08:41;;;;;;;0.10;0.10;;;;;;;-4.25;100.00;98202.44;6214315;23;20030;-75
2023/01/18 00:11:14;;;;;;;0.00;0.00;;;;;;;-4.23;100.00;98200.38;6212607;23;20016;-76
2023/01/18 00:13:40;;;;;;;0.10;0.10;;;;;;;-4.05;100.00;98208.31;6213912;23;20091;-76
2023/01/18 00:16:11;;;;;;;0.03;0.03;;;;;;;-4.00;100.00;98209.50;6202633;23;20044;-75
2023/01/18 00:18:37;;;;;;;0.00;0.00;;;;;;;-3.95;100.00;98209.66;6209239;23;20427;-74
2023/01/18 00:21:04;;;;;;;0.00;0.00;;;;;;;-3.91;100.00;98214.31;6209390;23;20008;-74
2023/01/18 00:23:30;;;;;;;0.10;0.10;;;;;;;-3.86;100.00;98209.09;6205422;23;20035;-74
2023/01/18 00:26:10;;;;;;;0.00;0.00;;;;;;;-3.86;100.00;98208.28;6187366;23;20008;-75
2023/01/18 00:28:37;;;;;;;0.00;0.00;;;;;;;-3.80;100.00;98204.72;6205545;23;20016;-74
2023/01/18 00:31:20;;;;;;;0.00;0.00;;;;;;;-3.76;100.00;98215.78;6207897;23;20153;-73
2023/01/18 00:33:48;;;;;;;0.10;0.10;;;;;;;-3.80;100.00;98204.72;6178773;23;20024;-75
2023/01/18 00:36:15;;;;;;;0.10;0.10;;;;;;;-3.82;100.00;98206.81;6205920;23;20005;-75
2023/01/18 00:38:40;;;;;;;0.10;0.10;;;;;;;-3.81;100.00;98208.44;6179698;23;20032;-75
2023/01/18 00:41:06;;;;;;;0.00;0.00;;;;;;;-3.77;100.00;98214.94;6185038;23;20015;-75
2023/01/18 00:43:37;;;;;;;0.00;0.00;;;;;;;-3.70;100.00;98214.84;6184678;23;20005;-74
2023/01/18 00:46:06;;;;;;;0.10;0.10;;;;;;;-3.69;100.00;98217.28;6204286;23;20092;-75
2023/01/18 00:48:32;;;;;;;0.10;0.10;;;;;;;-3.72;100.00;98216.94;6201950;23;20339;-77
2023/01/18 00:50:57;;;;;;;0.10;0.10;;;;;;;-3.74;100.00;98219.84;6208553;23;20022;-75
2023/01/18 00:53:23;;;;;;;0.05;0.05;;;;;;;-3.71;100.00;98224.75;6203439;23;20091;-74
2023/01/18 00:55:48;;;;;;;0.10;0.10;;;;;;;-3.73;100.00;98216.13;6207622;23;20005;-74
2023/01/18 00:58:14;;;;;;;0.00;0.00;;;;;;;-3.77;100.00;98209.59;6186000;23;20043;-74
2023/01/18 01:00:42;;;;;;;0.00;0.00;;;;;;;-3.78;100.00;98207.97;6179276;23;20775;-74
2023/01/18 01:03:07;;;;;;;0.00;0.00;;;;;;;-3.77;100.00;98206.13;6185688;23;20027;-76
2023/01/18 01:08:17;;;;;;;0.00;0.00;;;;;;;-3.70;100.00;98215.66;6212422;23;20019;-74
2023/01/18 01:10:47;;;;;;;0.10;0.10;;;;;;;-3.70;100.00;98209.50;6187851;23;20005;-75
2023/01/18 01:27:04;;;;;;;0.10;0.10;;;;;;;-3.62;100.00;98211.88;6185601;23;20462;-75
2023/01/18 01:29:29;;;;;;;0.00;0.00;;;;;;;-3.62;100.00;98211.03;6184293;23;20230;-74
2023/01/18 01:31:54;;;;;;;0.10;0.10;;;;;;;-3.56;100.00;98215.50;6205383;23;20446;-74
2023/01/18 01:34:20;;;;;;;0.00;0.00;;;;;;;-3.55;100.00;98219.78;6207852;23;20435;-74
2023/01/18 01:36:45;;;;;;;0.00;0.00;;;;;;;-3.57;100.00;98213.84;6184560;23;20422;-74
2023/01/18 01:39:11;;;;;;;0.00;0.00;;;;;;;-3.60;100.00;98209.78;6209967;23;20334;-74
2023/01/18 01:41:37;;;;;;;0.10;0.10;;;;;;;-3.50;100.00;98233.28;6210923;23;20008;-73
2023/01/18 01:44:22;;;;;;;0.05;0.05;;;;;;;-3.44;100.00;98235.03;6205992;23;20008;-73
2023/01/18 01:46:55;;;;;;;0.10;0.10;;;;;;;-3.36;100.00;98231.19;6207271;23;20388;-75
2023/01/18 01:49:27;;;;;;;0.00;0.00;;;;;;;-3.26;100.00;98233.31;6209825;23;20058;-73
2023/01/18 01:52:14;;;;;;;0.00;0.00;;;;;;;-3.27;100.00;98240.53;6209392;23;20067;-74
2023/01/18 01:54:46;;;;;;;0.10;0.10;;;;;;;-3.35;100.00;98225.63;6213529;23;20079;-74
2023/01/18 01:57:19;;;;;;;0.10;0.10;;;;;;;-3.41;100.00;98234.56;6203334;23;20020;-74
2023/01/18 02:00:05;;;;;;;0.10;0.10;;;;;;;-3.43;100.00;98231.31;6208394;23;20008;-75
2023/01/18 02:02:33;;;;;;;0.00;0.00;;;;;;;-3.43;100.00;98234.00;6201835;23;20019;-73
2023/01/18 02:05:01;;;;;;;0.10;0.10;;;;;;;-3.31;100.00;98238.53;6186366;23;20008;-74
2023/01/18 02:07:27;;;;;;;0.00;0.00;;;;;;;-3.25;100.00;98242.97;6204091;23;20035;-75
2023/01/18 02:09:55;;;;;;;0.00;0.00;;;;;;;-3.24;100.00;98245.41;6201411;23;20012;-74
2023/01/18 02:12:20;;;;;;;0.00;0.00;;;;;;;-3.20;100.00;98246.59;6185874;23;20087;-74
2023/01/18 02:14:46;;;;;;;0.10;0.10;;;;;;;-3.22;100.00;98245.19;6199028;23;20086;-75
2023/01/18 02:17:31;;;;;;;0.00;0.00;;;;;;;-3.16;100.00;98257.63;6185552;23;20020;-74
2023/01/18 02:20:26;;;;;;;0.10;0.10;;;;;;;-3.21;100.00;98257.53;6201955;23;20110;-74
2023/01/18 02:23:18;;;;;;;0.10;0.10;;;;;;;-3.21;100.00;98260.19;6187495;23;20016;-74
2023/01/18 02:26:08;;;;;;;0.05;0.05;;;;;;;-3.21;100.00;98254.84;6209786;23;20031;-76
2023/01/18 02:28:40;;;;;;;0.00;0.00;;;;;;;-3.24;100.00;98257.94;6207575;23;20032;-74
2023/01/18 02:31:37;;;;;;;0.10;0.10;;;;;;;-3.25;100.00;98264.38;6198580;23;19993;-74
2023/01/18 02:34:20;;;;;;;0.10;0.10;;;;;;;-3.31;100.00;98251.88;6200878;23;20107;-74
2023/01/18 02:36:51;;;;;;;0.10;0.10;;;;;;;-3.33;100.00;98260.97;6206754;23;20420;-74
2023/01/18 02:39:39;;;;;;;0.10;0.10;;;;;;;-3.37;100.00;98267.00;6209414;23;20064;-74
2023/01/18 02:48:43;;;;;;;0.10;0.10;;;;;;;-3.40;100.00;98257.59;6197232;23;20101;-74
2023/01/18 02:51:10;;;;;;;0.00;0.00;;;;;;;-3.38;100.00;98260.03;6184179;23;20051;-74
2023/01/18 02:53:45;;;;;;;0.10;0.10;;;;;;;-3.36;100.00;98247.25;6207160;23;20008;-74
2023/01/18 02:56:32;;;;;;;0.10;0.10;;;;;;;-3.29;100.00;98257.84;6183550;23;20016;-74
2023/01/18 02:59:17;;;;;;;0.10;0.10;;;;;;;-3.25;100.00;98254.47;6200028;23;20051;-74
2023/01/18 03:01:45;;;;;;;0.00;0.00;;;;;;;-3.21;100.00;98252.19;6213238;23;20012;-75
2023/01/18 03:04:28;;;;;;;0.10;0.10;;;;;;;-3.21;100.00;98244.97;6197722;23;20031;-76
2023/01/18 03:07:02;;;;;;;0.03;0.03;;;;;;;-3.18;100.00;98252.50;6209289;23;20007;-75
2023/01/18 03:09:30;;;;;;;0.00;0.00;;;;;;;-3.18;100.00;98243.69;6203687;23;20008;-75
2023/01/18 03:11:58;;;;;;;0.10;0.10;;;;;;;-3.18;100.00;98249.84;6211447;23;20000;-74
2023/01/18 03:14:46;;;;;;;0.00;0.00;;;;;;;-3.20;100.00;98253.78;6208559;23;20722;-74
2023/01/18 03:17:30;;;;;;;0.00;0.00;;;;;;;-3.22;100.00;98263.91;6204309;23;20008;-74
2023/01/18 03:20:07;;;;;;;0.10;0.10;;;;;;;-3.27;100.00;98255.75;6205583;23;20008;-75
2023/01/18 03:25:37;;;;;;;0.00;0.00;;;;;;;-3.27;100.00;98261.09;6212548;23;20374;-75
2023/01/18 03:33:46;;;;;;;0.10;0.10;;;;;;;-3.23;100.00;98257.72;6205780;23;20071;-74
2023/01/18 03:36:21;;;;;;;0.08;0.08;;;;;;;-3.23;100.00;98267.63;6210272;23;20378;-74
2023/01/18 03:38:49;;;;;;;;;;;;;;;-3.14;100.00;98276.91;6208166;23;20009;-74
2023/01/18 03:41:17;;;;;;;0.10;0.10;;;;;;;-3.16;100.00;98273.66;6208274;23;19915;-75
2023/01/18 03:43:44;;;;;;;0.00;0.00;;;;;;;-3.13;100.00;98273.22;6205646;23;20009;-74
2023/01/18 03:46:13;;;;;;;0.00;0.00;;;;;;;-3.07;100.00;98268.81;6186387;23;20016;-75
2023/01/18 03:48:39;;;;;;;0.10;0.10;;;;;;;-3.07;100.00;98260.78;6206441;23;20011;-75
2023/01/18 03:51:41;;;;;;;0.10;0.10;;;;;;;-2.99;100.00;98273.81;6184389;23;20001;-76
2023/01/18 03:54:18;;;;;;;0.10;0.10;;;;;;;-3.01;100.00;98273.22;6209647;23;20012;-76
2023/01/18 03:56:53;;;;;;;0.10;0.10;;;;;;;-3.03;100.00;98262.75;6213488;23;20000;-77
2023/01/18 03:59:20;;;;;;;0.10;0.10;;;;;;;-3.14;100.00;98255.53;6212102;23;20376;-76
2023/01/18 04:01:47;;;;;;;0.03;0.03;;;;;;;-3.13;100.00;98257.16;6212173;23;20324;-77
2023/01/18 04:04:13;;;;;;;0.10;0.10;;;;;;;-3.09;100.00;98269.03;6158464;23;20072;-76
2023/01/18 04:06:39;;;;;;;0.10;0.10;;;;;;;-3.04;100.00;98276.38;6184522;23;20008;-76
2023/01/18 04:09:04;;;;;;;0.10;0.10;;;;;;;-3.01;100.00;98276.75;6204941;23;20071;-76
2023/01/18 04:11:30;;;;;;;0.00;0.00;;;;;;;-3.05;100.00;98270.22;6186493;23;20332;-76
2023/01/18 04:13:55;;;;;;;0.10;0.10;;;;;;;-2.99;100.00;98274.63;6181337;23;20008;-77
2023/01/18 04:16:21;;;;;;;0.10;0.10;;;;;;;-2.99;100.00;98277.31;6184557;23;20005;-76
2023/01/18 04:18:47;;;;;;;0.10;0.10;;;;;;;-3.04;100.00;98277.19;6209160;23;20016;-76
2023/01/18 04:21:12;;;;;;;0.10;0.10;;;;;;;-3.04;100.00;98271.84;6183503;23;20076;-76
2023/01/18 04:23:38;;;;;;;0.10;0.10;;;;;;;-3.01;100.00;98270.56;6184161;23;20446;-76
2023/01/18 04:26:03;;;;;;;0.10;0.10;;;;;;;-2.99;100.00;98279.97;6180843;23;20016;-76
2023/01/18 04:28:29;;;;;;;0.10;0.10;;;;;;;-3.11;100.00;98252.41;6162667;23;20446;-76
2023/01/18 04:30:55;;;;;;;0.10;0.10;;;;;;;-3.07;100.00;98274.97;6155776;23;20005;-76
2023/01/18 04:33:22;;;;;;;0.10;0.10;;;;;;;-3.13;100.00;98269.72;6209094;23;20067;-76
2023/01/18 04:35:49;;;;;;;0.00;0.00;;;;;;;-3.17;100.00;98266.69;6210856;23;20087;-76
2023/01/18 04:38:15;;;;;;;0.10;0.10;;;;;;;-3.19;100.00;98268.78;6205488;23;20009;-76
2023/01/18 04:40:41;;;;;;;0.10;0.10;;;;;;;-3.23;100.00;98272.97;6208788;23;20388;-77
2023/01/18 04:43:06;;;;;;;0.00;0.00;;;;;;;-3.34;100.00;98258.53;6210397;23;20058;-75
2023/01/18 04:45:32;;;;;;;0.10;0.10;;;;;;;-3.29;100.00;98279.22;6180475;23;20082;-76
2023/01/18 04:47:57;;;;;;;0.10;0.10;;;;;;;-3.36;100.00;98269.47;6210196;23;20036;-76
2023/01/18 04:50:23;;;;;;;0.10;0.10;;;;;;;-3.39;100.00;98280.59;6179496;23;20004;-76
2023/01/18 04:52:48;;;;;;;0.10;0.10;;;;;;;-3.36;100.00;98290.84;6183799;23;20419;-76
2023/01/18 04:55:14;;;;;;;0.10;0.10;;;;;;;-3.40;100.00;98276.28;6207269;23;20004;-76
2023/01/18 04:57:44;;;;;;;0.10;0.10;;;;;;;-3.33;100.00;98294.88;6184072;23;20095;-77
2023/01/18 05:00:11;;;;;;;0.10;0.10;;;;;;;-3.35;100.00;98292.44;6159802;23;20000;-77
2023/01/18 05:02:37;;;;;;;0.10;0.10;;;;;;;-3.33;100.00;98295.72;6205736;23;20017;-76
2023/01/18 05:05:04;;;;;;;0.10;0.10;;;;;;;-3.31;100.00;98305.34;6209857;23;20073;-78
2023/01/18 05:07:32;;;;;;;0.10;0.10;;;;;;;-3.33;100.00;98298.41;6154142;23;20013;-76
2023/01/18 05:10:02;;;;;;;0.00;0.00;;;;;;;-3.29;100.00;98311.31;6209097;23;20047;-76
2023/01/18 05:12:28;;;;;;;0.00;0.00;;;;;;;-3.29;100.00;98311.31;6204959;23;20579;-76
2023/01/18 05:14:54;;;;;;;0.10;0.10;;;;;;;-3.27;100.00;98303.84;6209441;23;20024;-76
2023/01/18 05:17:20;;;;;;;0.00;0.00;;;;;;;-3.27;100.00;98298.50;6179725;23;20078;-77
2023/01/18 05:19:47;;;;;;;0.10;0.10;;;;;;;-3.32;100.00;98291.19;6182439;23;20432;-76
2023/01/18 05:22:12;;;;;;;0.00;0.00;;;;;;;-3.21;100.00;98297.63;6183318;23;20055;-77
2023/01/18 05:24:38;;;;;;;0.00;0.00;;;;;;;-3.18;100.00;98307.84;6205859;23;20004;-76
2023/01/18 05:27:06;;;;;;;0.10;0.10;;;;;;;-3.15;100.00;98296.69;6184465;23;20016;-77
2023/01/18 05:29:31;;;;;;;0.10;0.10;;;;;;;-3.04;100.00;98311.13;6205890;23;20073;-74
2023/01/18 05:31:57;;;;;;;0.10;0.10;;;;;;;-3.04;100.00;98298.59;6181819;23;20087;-75
2023/01/18 05:34:22;;;;;;;0.10;0.10;;;;;;;-3.00;100.00;98310.44;6206883;23;20024;-76
2023/01/18 05:36:48;;;;;;;0.10;0.10;;;;;;;-3.13;100.00;98299.94;6178210;23;20499;-75
2023/01/18 05:39:13;;;;;;;0.00;0.00;;;;;;;-3.06;100.00;98306.00;6157171;23;20799;-76
2023/01/18 05:41:39;;;;;;;0.00;0.00;;;;;;;-3.10;100.00;98304.84;6178806;23;20008;-76
2023/01/18 05:44:04;;;;;;;0.10;0.10;;;;;;;-3.11;100.00;98307.75;6184378;23;20087;-74
2023/01/18 05:46:30;;;;;;;0.00;0.00;;;;;;;-3.20;100.00;98301.91;6207284;23;20390;-77
2023/01/18 05:48:58;;;;;;;0.00;0.00;;;;;;;-3.24;100.00;98303.41;6155382;23;20008;-77
2023/01/18 05:51:24;;;;;;;0.10;0.10;;;;;;;-3.20;100.00;98305.41;6183482;23;20005;-77
2023/01/18 05:53:50;;;;;;;0.10;0.10;;;;;;;-3.25;100.00;98302.59;6177794;23;20092;-75
2023/01/18 05:56:15;;;;;;;0.00;0.00;;;;;;;-3.27;100.00;98307.38;6210019;23;20001;-76
2023/01/18 05:58:41;;;;;;;0.00;0.00;;;;;;;-3.23;100.00;98305.03;6178788;23;20016;-76
2023/01/18 06:01:07;;;;;;;0.10;0.10;;;;;;;-3.22;100.00;98312.81;6182206;23;20071;-77
2023/01/18 06:03:33;;;;;;;0.00;0.00;;;;;;;-3.18;100.00;98318.56;6159493;23;20020;-76
2023/01/18 06:05:59;;;;;;;0.10;0.10;;;;;;;-3.20;100.00;98316.09;6204266;23;20007;-75
2023/01/18 06:08:25;;;;;;;0.10;0.10;;;;;;;-3.14;100.00;98325.03;6183886;23;20009;-76
2023/01/18 06:10:56;;;;;;;0.00;0.00;;;;;;;-3.15;100.00;98318.09;6203276;23;20005;-75
2023/01/18 06:13:23;;;;;;;0.00;0.00;;;;;;;-3.09;100.00;98324.38;6208668;23;20011;-74
2023/01/18 06:15:50;;;;;;;0.10;0.10;;;;;;;-3.12;100.00;98312.28;6178972;23;20043;-75
2023/01/18 06:18:16;;;;;;;0.10;0.10;;;;;;;-3.06;100.00;98322.06;6210552;23;20642;-76
2023/01/18 06:20:41;;;;;;;0.00;0.00;;;;;;;-3.09;100.00;98314.50;6154635;23;20024;-76
2023/01/18 06:23:07;;;;;;;0.10;0.10;;;;;;;-3.05;100.00;98334.41;6184119;23;20015;-76
2023/01/18 06:25:32;;;;;;;0.10;0.10;;;;;;;-3.08;100.00;98317.97;6208622;23;20094;-75
2023/01/18 06:27:58;;;;;;;0.10;0.10;;;;;;;-3.05;100.00;98333.56;6155196;23;20011;-76
2023/01/18 06:30:24;;;;;;;0.00;0.00;;;;;;;-3.05;100.00;98337.06;6207673;23;20087;-75
2023/01/18 06:32:50;;;;;;;0.00;0.00;;;;;;;-3.05;100.00;98334.41;6158697;23;20028;-75
2023/01/18 06:35:15;;;;;;;0.00;0.00;;;;;;;-3.00;100.00;98353.22;6177715;23;20028;-75
2023/01/18 06:37:41;;;;;;;0.00;0.00;;;;;;;-3.06;100.00;98351.47;6209533;23;20031;-76
2023/01/18 06:40:08;;;;;;;0.00;0.00;;;;;;;-3.04;100.00;98352.06;6179495;23;20833;-75
2023/01/18 06:42:33;;;;;;;0.00;0.00;;;;;;;-3.05;100.00;98354.94;6209379;23;20114;-75
2023/01/18 06:44:59;;;;;;;0.00;0.00;;;;;;;-3.06;100.00;98356.81;6180500;23;20008;-75
2023/01/18 06:47:24;;;;;;;0.10;0.10;;;;;;;-3.13;100.00;98342.72;6209701;23;20019;-75
2023/01/18 06:49:50;;;;;;;0.10;0.10;;;;;;;-3.08;100.00;98348.22;6184398;23;20074;-76
2023/01/18 06:52:15;;;;;;;0.00;0.00;;;;;;;-3.04;100.00;98359.28;6179109;23;20004;-76
2023/01/18 06:54:41;;;;;;;0.00;0.00;;;;;;;-3.04;100.00;98359.28;6209563;23;20008;-77
2023/01/18 06:57:06;;;;;;;0.10;0.10;;;;;;;-3.07;100.00;98336.47;6204108;23;20121;-77
2023/01/18 06:59:32;;;;;;;0.00;0.00;;;;;;;-2.90;100.00;98365.25;6210061;23;20004;-76
2023/01/18 07:01:57;;;;;;;0.00;0.00;;;;;;;-2.91;100.00;98361.75;6203317;23;20147;-76
2023/01/18 07:04:22;;;;;;;0.00;0.00;;;;;;;-2.91;100.00;98372.44;6207241;23;20005;-77
2023/01/18 07:06:48;;;;;;;0.00;0.00;;;;;;;-2.87;100.00;98362.13;6207004;23;20008;-77
2023/01/18 07:09:13;;;;;;;0.00;0.00;;;;;;;-2.83;100.00;98374.00;6205591;23;20565;-76
2023/01/18 07:11:42;;;;;;;0.00;0.00;;;;;;;-2.77;100.00;98373.06;6184500;23;20011;-75
2023/01/18 07:14:10;;;;;;;0.10;0.10;;;;;;;-2.76;100.00;98366.69;6203087;23;20340;-75
2023/01/18 07:16:35;;;;;;;0.10;0.10;;;;;;;-2.72;100.00;98381.22;6184725;23;20047;-77
2023/01/18 07:19:02;;;;;;;0.00;0.00;;;;;;;-2.73;100.00;98379.59;6178089;23;20425;-77
2023/01/18 07:21:29;;;;;;;0.00;0.00;;;;;;;-2.71;100.00;98385.53;6182319;23;20335;-77
2023/01/18 07:23:57;;;;;;;0.00;0.00;;;;;;;-2.66;100.00;98388.34;6207945;23;20321;-77
2023/01/18 07:26:25;;;;;;;0.00;0.00;;;;;;;-2.70;100.00;98384.47;6182307;23;20012;-80
2023/01/18 07:28:53;;;;;;;0.00;0.00;;;;;;;-2.74;100.00;98377.97;6211284;23;20418;-79
2023/01/18 07:31:19;;;;;;;0.00;0.00;;;;;;;-2.74;100.00;98372.59;6206063;23;20004;-77
2023/01/18 07:33:44;;;;;;;0.10;0.10;;;;;;;-2.69;100.00;98396.78;6208470;23;20428;-78
2023/01/18 07:36:12;;;;;;;0.10;0.10;;;;;;;-2.74;100.00;98399.38;6184703;23;20058;-79
2023/01/18 07:38:46;;;;;;;0.00;0.00;;;;;;;-2.79;100.00;98396.53;6205755;23;20007;-78
2023/01/18 07:41:13;;;;;;;0.10;0.10;;;;;;;-2.81;100.00;98388.75;6208519;23;20008;-79
2023/01/18 07:43:40;;;;;;;0.10;0.10;;;;;;;-2.74;100.00;98407.38;6211203;23;20068;-78
2023/01/18 07:46:19;;;;;;;0.10;0.10;;;;;;;-2.79;100.00;98412.59;6203585;23;20313;-79
2023/01/18 07:48:46;;;;;;;0.10;0.10;;;;;;;-2.82;100.00;98405.88;6211588;23;20016;-78
2023/01/18 07:51:14;;;;;;;0.00;0.00;;;;;;;-2.90;100.00;98413.41;6206295;23;20000;-79
2023/01/18 07:53:40;;;;;;;0.00;0.00;;;;;;;-2.97;100.00;98404.66;6210539;23;20008;-79
2023/01/18 07:56:12;;;;;;;0.10;0.10;;;;;;;-2.88;100.00;98424.66;6207769;23;20074;-79
2023/01/18 07:58:40;;;;;;;0.10;0.10;;;;;;;-2.92;100.00;98418.13;6208979;23;20008;-80
2023/01/18 08:01:09;;;;;;;0.10;0.10;;;;;;;-2.89;100.00;98423.03;6211366;23;20015;-81
2023/01/18 08:03:35;;;;;;;0.10;0.10;;;;;;;-2.93;100.00;98419.22;6211456;23;20005;-80
2023/01/18 08:06:10;;;;;;;0.10;0.10;;;;;;;-2.91;100.00;98431.28;6214212;23;20039;-79
2023/01/18 08:08:55;;;;;;;0.00;0.00;;;;;;;-2.85;100.00;98426.88;6208101;23;19997;-79
2023/01/18 08:11:21;;;;;;;0.10;0.10;;;;;;;-2.99;100.00;98403.00;6212616;23;20024;-82
2023/01/18 08:13:53;;;;;;;0.10;0.10;;;;;;;-3.00;100.00;98409.38;6211443;23;20008;-79
2023/01/18 08:16:19;;;;;;;0.00;0.00;;;;;;;-2.81;100.00;98433.41;6213912;23;20004;-79
2023/01/18 08:18:47;;;;;;;0.00;0.00;;;;;;;-2.86;100.00;98438.63;6183372;23;20438;-79
2023/01/18 08:21:13;;;;;;;0.10;0.10;;;;;;;-2.86;100.00;98422.56;6212328;23;20028;-79
2023/01/18 08:23:38;;;;;;;0.00;0.00;;;;;;;-2.84;100.00;98431.19;6183247;23;20004;-79
2023/01/18 08:26:16;;;;;;;0.00;0.00;;;;;;;-2.77;100.00;98436.44;6214847;23;20388;-79
2023/01/18 08:28:43;;;;;;;0.10;0.10;;;;;;;-2.73;100.00;98443.81;6187284;23;20008;-79
2023/01/18 08:31:13;;;;;;;0.10;0.10;;;;;;;-2.74;100.00;98446.72;6214162;23;20000;-79
2023/01/18 08:33:44;;;;;;;0.03;0.03;;;;;;;-2.70;100.00;98442.50;6213100;23;20027;-79
2023/01/18 08:36:11;;;;;;;0.00;0.00;;;;;;;-2.70;100.00;98443.34;6189051;23;20038;-80
2023/01/18 08:38:37;;;;;;;0.10;0.10;;;;;;;-2.64;100.00;98436.28;6208679;23;20383;-79
2023/01/18 08:41:03;;;;;;;0.10;0.10;;;;;;;-2.50;100.00;98447.56;6212561;23;20016;-80
2023/01/18 08:43:29;;;;;;;0.00;0.00;;;;;;;-2.42;100.00;98449.94;6210292;23;20439;-80
2023/01/18 08:46:02;;;;;;;0.00;0.00;;;;;;;-2.19;100.00;98467.06;6207803;23;20058;-79
2023/01/18 08:48:27;;;;;;;0.00;0.00;;;;;;;-2.09;100.00;98463.84;6185749;23;20001;-78
2023/01/18 08:50:53;;;;;;;0.10;0.10;;;;;;;-2.00;100.00;98462.44;6186839;23;20755;-79
2023/01/18 08:53:22;;;;;;;0.10;0.10;;;;;;;-1.82;100.00;98472.25;6214652;23;19997;-78
2023/01/18 08:55:48;;;;;;;0.10;0.10;;;;;;;-1.73;100.00;98486.91;6184350;23;20463;-80
2023/01/18 08:58:13;;;;;;;0.10;0.10;;;;;;;-1.70;100.00;98477.59;6190678;23;20019;-78
2023/01/18 09:00:39;;;;;;;0.10;0.10;;;;;;;-1.65;100.00;98475.84;6212347;23;20334;-79
2023/01/18 09:03:05;;;;;;;0.10;0.10;;;;;;;-1.63;100.00;98484.47;6164810;23;20024;-80
2023/01/18 09:05:33;;;;;;;0.00;0.00;;;;;;;-1.61;100.00;98471.66;6161999;23;20012;-79
2023/01/18 09:07:58;;;;;;;0.00;0.00;;;;;;;-1.62;100.00;98472.69;6213436;23;20008;-79
2023/01/18 09:10:31;;;;;;;0.00;0.00;;;;;;;-1.55;100.00;98477.13;6160262;23;20012;-80
2023/01/18 09:13:04;;;;;;;0.10;0.10;;;;;;;-1.44;100.00;98505.78;6165864;23;20067;-79
2023/01/18 09:15:33;;;;;;;0.10;0.10;;;;;;;-1.47;100.00;98488.28;6210987;23;20335;-79
2023/01/18 09:18:04;;;;;;;0.00;0.00;;;;;;;-1.35;100.00;98496.31;6188100;23;20027;-78
2023/01/18 09:20:30;;;;;;;0.10;0.10;;;;;;;-1.32;100.00;98487.81;6184179;23;20028;-80
2023/01/18 09:22:56;;;;;;;0.10;0.10;;;;;;;-1.19;100.00;98493.97;6211768;23;20091;-78
2023/01/18 09:25:21;;;;;;;0.10;0.10;;;;;;;-1.04;100.00;98513.06;6159754;23;20043;-79
2023/01/18 09:27:47;;;;;;;0.00;0.00;;;;;;;-1.00;100.00;98514.22;6212027;23;20000;-79
2023/01/18 09:30:14;;;;;;;0.10;0.10;;;;;;;-0.81;100.00;98522.09;6211079;23;20138;-78
2023/01/18 09:32:43;;;;;;;0.10;0.10;;;;;;;-0.13;100.00;98516.88;6213062;23;20439;-79
2023/01/18 09:35:08;;;;;;;0.10;0.10;;;;;;;2.58;100.00;98510.31;6215856;23;20362;-79
2023/01/18 09:37:39;;;;;;;0.00;0.00;;;;;;;4.98;100.00;98526.41;6168470;23;20008;-78
2023/01/18 09:40:18;;;;;;;0.10;0.10;;;;;;;6.73;100.00;98541.63;6208833;23;20035;-79
2023/01/18 09:42:44;;;;;;;0.00;0.00;;;;;;;7.62;100.00;98550.38;6210103;23;20005;-77
2023/01/18 09:45:32;;;;;;;0.00;0.00;;;;;;;8.34;100.00;98557.53;6206919;23;20004;-79
2023/01/18 09:48:28;;;;;;;0.10;0.10;;;;;;;8.38;100.00;98562.09;6211772;23;20831;-78
2023/01/18 09:50:57;;;;;;;0.00;0.00;;;;;;;8.33;100.00;98574.97;6213466;23;19997;-77
2023/01/18 09:53:44;;;;;;;0.10;0.10;;;;;;;7.93;100.00;98572.56;6210116;23;20008;-77
2023/01/18 09:56:24;;;;;;;0.00;0.00;;;;;;;8.62;100.00;98579.44;6211454;23;20055;-78
2023/01/18 09:59:04;;;;;;;0.00;0.00;;;;;;;10.47;100.00;98589.38;6207367;23;21091;-78
2023/01/18 10:01:32;;;;;;;0.00;0.00;;;;;;;12.03;100.00;98583.00;6213396;23;20028;-78
2023/01/18 10:04:26;;;;;;;0.00;0.00;;;;;;;14.24;100.00;98598.47;6205782;23;20017;-78
2023/01/18 10:07:01;;;;;;;0.00;0.00;;;;;;;14.90;100.00;98610.72;6211265;23;20446;-79
2023/01/18 10:09:33;;;;;;;0.00;0.00;;;;;;;15.54;100.00;98604.63;6210558;23;20001;-79
2023/01/18 10:12:08;;;;;;;0.00;0.00;;;;;;;15.42;100.00;98618.41;6212245;23;20367;-77
2023/01/18 10:14:36;;;;;;;0.00;0.00;;;;;;;16.59;100.00;98627.16;6210255;23;20000;-78
2023/01/18 10:17:10;;;;;;;0.10;0.10;;;;;;;17.12;100.00;98629.81;6211636;23;20000;-77
2023/01/18 10:19:36;;;;;;;0.00;0.00;;;;;;;16.77;96.90;98619.38;6210361;23;20000;-79
2023/01/18 10:22:07;;;;;;;0.10;0.10;;;;;;;17.33;88.68;98634.31;6162015;23;20040;-78
2023/01/18 10:25:08;;;;;;;0.00;0.00;;;;;;;16.76;84.83;98634.31;6209313;23;20001;-78
2023/01/18 10:27:43;;;;;;;0.00;0.00;;;;;;;16.19;86.36;98656.34;6210979;23;20482;-78
2023/01/18 10:30:09;;;;;;;0.10;0.10;;;;;;;16.78;86.33;98658.81;6213000;23;20004;-78
2023/01/18 10:32:42;;;;;;;0.00;0.00;;;;;;;17.55;87.08;98664.09;6212866;23;20016;-78
2023/01/18 10:35:23;;;;;;;0.00;0.00;;;;;;;18.81;82.11;98667.00;6210455;23;20334;-77
2023/01/18 10:37:50;;;;;;;0.00;0.00;;;;;;;16.69;74.27;98670.81;6212587;23;20423;-77
2023/01/18 10:40:16;;;;;;;0.10;0.10;;;;;;;16.54;85.75;98666.84;6179137;23;20098;-79
2023/01/18 10:42:50;;;;;;;0.00;0.00;;;;;;;16.09;81.60;98681.63;6186047;23;20439;-79
2023/01/18 10:45:30;;;;;;;0.00;0.00;;;;;;;16.89;91.58;98682.88;6208648;23;20095;-78
2023/01/18 10:48:19;;;;;;;0.00;0.00;;;;;;;17.94;81.75;98680.09;6214475;23;20068;-78
2023/01/18 10:50:53;;;;;;;0.00;0.00;;;;;;;18.83;86.80;98683.25;6193492;23;20005;-79
2023/01/18 10:53:32;;;;;;;0.10;0.10;;;;;;;20.43;79.98;98684.88;6211458;23;20008;-80
2023/01/18 10:56:11;;;;;;;0.00;0.00;;;;;;;21.06;82.53;98675.81;6208314;23;20511;-79
2023/01/18 10:58:58;;;;;;;0.00;0.00;;;;;;;21.91;80.09;98659.59;6209835;23;20015;-78
2023/01/18 11:01:30;;;;;;;0.00;0.00;;;;;;;22.16;75.35;98676.47;6210692;23;20328;-80
2023/01/18 11:04:14;;;;;;;0.00;0.00;;;;;;;22.22;76.17;98696.41;6209654;23;20019;-79
2023/01/18 11:06:49;;;;;;;0.00;0.00;;;;;;;20.10;75.88;98684.41;6210886;23;20008;-79
2023/01/18 11:09:49;;;;;;;0.00;0.00;;;;;;;20.90;81.36;98697.47;6208825;23;20058;-78
2023/01/18 11:12:35;;;;;;;0.00;0.00;;;;;;;22.26;81.58;98697.22;6195713;23;19997;-78
2023/01/18 11:15:12;;;;;;;0.00;0.00;;;;;;;21.43;70.39;98716.72;6210421;23;20324;-80
2023/01/18 11:18:07;;;;;;;0.00;0.00;;;;;;;19.60;86.37;98723.19;6212064;23;20028;-80
2023/01/18 11:20:47;;;;;;;0.00;0.00;;;;;;;16.49;87.13;98722.25;6196386;23;20312;-79
2023/01/18 11:23:20;;;;;;;0.03;0.03;;;;;;;17.86;100.00;98716.97;6208857;23;20079;-81
2023/01/18 11:26:00;;;;;;;0.00;0.00;;;;;;;20.67;97.65;98720.56;6218180;23;20005;-80
2023/01/18 11:28:57;;;;;;;0.00;0.00;;;;;;;23.15;87.58;98718.47;6214577;23;20008;-81
2023/01/18 11:31:26;;;;;;;0.00;0.00;;;;;;;24.62;80.75;98728.19;6212924;23;20107;-80
2023/01/18 11:34:03;;;;;;;0.00;0.00;;;;;;;25.73;78.54;98738.13;6214433;23;20020;-80
2023/01/18 11:36:36;;;;;;;0.00;0.00;;;;;;;26.39;74.71;98722.47;6214295;23;20007;-79
2023/01/18 11:39:20;;;;;;;0.00;0.00;;;;;;;26.34;71.71;98731.31;6216728;23;20011;-80
2023/01/18 11:41:48;;;;;;;0.00;0.00;;;;;;;26.91;78.79;98713.94;6213531;23;20012;-77
2023/01/18 11:44:35;;;;;;;0.00;0.00;;;;;;;27.63;76.11;98721.41;6214536;23;20011;-78
2023/01/18 11:47:05;;;;;;;0.00;0.00;;;;;;;28.20;74.30;98733.78;6210019;23;20091;-79
2023/01/18 11:49:55;;;;;;;0.00;0.00;;;;;;;28.57;74.58;98745.22;6213366;23;20000;-80
2023/01/18 11:52:45;;;;;;;0.00;0.00;;;;;;;28.93;74.83;98750.19;6203700;23;20011;-79
2023/01/18 11:55:25;;;;;;;0.00;0.00;;;;;;;29.08;73.81;98734.59;6212834;23;20015;-79
2023/01/18 11:57:53;;;;;;;0.00;0.00;;;;;;;29.24;75.69;98735.94;6209129;23;20350;-80
2023/01/18 12:00:26;;;;;;;0.00;0.00;;;;;;;29.28;76.17;98731.03;6213945;23;20004;-80
2023/01/18 12:03:04;;;;;;;0.00;0.00;;;;;;;29.68;73.11;98738.59;6212078;23;20004;-82
2023/01/18 12:05:53;;;;;;;0.00;0.00;;;;;;;29.11;73.76;98741.38;6215062;23;20005;-80
2023/01/18 12:08:58;;;;;;;0.00;0.00;;;;;;;28.48;74.19;98753.41;6217546;23;20074;-80
2023/01/18 12:11:40;;;;;;;0.00;0.00;;;;;;;29.11;76.82;98749.81;6216212;23;20036;-80
2023/01/18 12:14:43;;;;;;;0.00;0.00;;;;;;;28.91;71.98;98735.75;6213427;23;20012;-78
2023/01/18 12:17:44;;;;;;;0.00;0.00;;;;;;;29.00;77.57;98750.06;6206372;23;20015;-81